Time;durP1;ratioP1;P1;durP2;ratioP2;P2;SDS_P1;SDS_P2;PMS_P1;PMS_P2;Temp;Humidity;BMP_temperature;BMP_pressure;BME280_temperature;BME280_humidity;BME280_pressure;Samples;Min_cycle;Max_cycle;Signal;HPM_P1;HPM_P2
2023/05/08 00:00:15;;;;;;;12.57;4.78;;;;;;;16.89;85.28;101623.69;7349410;19;20014;-64
2023/05/08 00:02:42;;;;;;;11.27;4.63;;;;;;;16.88;86.12;101622.03;7357115;19;20017;-65
2023/05/08 00:05:10;;;;;;;10.88;4.63;;;;;;;16.87;87.83;101615.06;7352161;19;20074;-64
2023/05/08 00:07:38;;;;;;;10.98;4.90;;;;;;;16.81;86.53;101615.78;7355100;19;20692;-65
2023/05/08 00:10:07;;;;;;;8.18;4.00;;;;;;;16.79;86.42;101617.75;7349956;19;20025;-64
2023/05/08 00:12:35;;;;;;;12.77;5.07;;;;;;;16.80;86.82;101611.47;7356076;19;20167;-65
2023/05/08 00:15:03;;;;;;;9.07;4.55;;;;;;;16.80;86.97;101598.16;7351345;19;20078;-65
2023/05/08 00:17:31;;;;;;;12.23;4.60;;;;;;;16.83;88.51;101598.63;7355610;19;20979;-64
2023/05/08 00:19:58;;;;;;;9.75;4.53;;;;;;;16.82;88.00;101601.47;7354215;19;20022;-64
2023/05/08 00:22:26;;;;;;;11.45;4.90;;;;;;;16.81;88.99;101605.16;7356202;19;20018;-64
2023/05/08 00:24:53;;;;;;;14.82;5.18;;;;;;;16.79;89.67;101602.66;7355127;19;20394;-64
2023/05/08 00:27:20;;;;;;;12.50;4.80;;;;;;;16.77;88.72;101603.81;7355268;19;20014;-64
2023/05/08 00:29:49;;;;;;;9.93;4.50;;;;;;;16.73;88.25;101598.03;7353256;19;20081;-65
2023/05/08 00:32:16;;;;;;;13.02;4.47;;;;;;;16.75;90.62;101592.53;7356667;19;20018;-64
2023/05/08 00:34:43;;;;;;;9.23;3.85;;;;;;;16.74;90.14;101598.84;7355370;19;20142;-66
2023/05/08 00:37:11;;;;;;;14.25;4.60;;;;;;;16.70;89.41;101586.91;7354116;19;20014;-64
2023/05/08 00:39:38;;;;;;;12.20;4.28;;;;;;;16.70;91.51;101590.41;7354578;19;20021;-64
2023/05/08 00:42:06;;;;;;;10.43;3.75;;;;;;;16.64;90.35;101591.94;7363060;19;20018;-64
2023/05/08 00:44:33;;;;;;;12.27;4.03;;;;;;;16.60;90.71;101584.47;7362077;19;20018;-64
2023/05/08 00:47:01;;;;;;;10.80;4.65;;;;;;;16.55;91.30;101584.13;7363953;19;20026;-65
2023/05/08 00:49:28;;;;;;;15.57;4.30;;;;;;;16.52;90.67;101582.63;7366647;19;20023;-65
2023/05/08 00:51:56;;;;;;;12.10;4.25;;;;;;;16.47;89.64;101579.66;7366003;19;20021;-64
2023/05/08 00:54:26;;;;;;;9.27;4.03;;;;;;;16.45;89.47;101583.53;7364576;19;20370;-65
2023/05/08 00:56:54;;;;;;;9.63;3.70;;;;;;;16.44;89.36;101579.19;7363851;19;20133;-65
2023/05/08 00:59:23;;;;;;;10.15;3.58;;;;;;;16.43;89.40;101581.03;7363199;19;20046;-65
2023/05/08 01:01:51;;;;;;;13.45;4.30;;;;;;;16.43;89.45;101575.72;7363045;19;20022;-66
2023/05/08 01:04:22;;;;;;;12.43;3.50;;;;;;;16.41;90.08;101575.03;7364765;19;20018;-65
2023/05/08 01:06:50;;;;;;;10.18;3.53;;;;;;;16.41;89.92;101576.88;7365329;19;20043;-65
2023/05/08 01:09:17;;;;;;;11.43;3.67;;;;;;;16.37;89.44;101568.44;7366074;19;20030;-64
2023/05/08 01:11:49;;;;;;;12.18;4.70;;;;;;;16.37;89.69;101570.25;7367454;19;20026;-64
2023/05/08 01:14:18;;;;;;;14.23;3.95;;;;;;;16.37;90.89;101573.75;7366824;19;20026;-64
2023/05/08 01:17:01;;;;;;;10.45;4.10;;;;;;;16.38;92.69;101572.75;7364767;19;20024;-66
2023/05/08 01:19:31;;;;;;;;;;;;;;;16.38;92.17;101575.41;7364682;19;20010;-64
2023/05/08 01:22:06;;;;;;;8.30;3.03;;;;;;;16.32;90.57;101576.09;7358065;19;19927;-64
2023/05/08 01:24:41;;;;;;;13.55;4.10;;;;;;;16.29;90.19;101576.44;7366299;19;20438;-65
2023/05/08 01:27:24;;;;;;;12.38;3.83;;;;;;;16.26;90.27;101568.78;7365433;19;20597;-64
2023/05/08 01:29:54;;;;;;;;;;;;;;;16.25;90.20;101572.47;7365881;19;20035;-65
2023/05/08 01:32:25;;;;;;;8.02;3.58;;;;;;;16.20;90.18;101575.63;7367302;19;20307;-66
2023/05/08 01:34:59;;;;;;;12.65;3.78;;;;;;;16.17;90.45;101573.31;7363175;19;20014;-65
2023/05/08 01:37:31;;;;;;;8.23;3.65;;;;;;;16.15;90.53;101572.63;7365329;19;20920;-64
2023/05/08 01:40:09;;;;;;;13.80;4.20;;;;;;;16.15;90.57;101569.19;7361493;19;20037;-63
2023/05/08 01:42:41;;;;;;;8.57;3.47;;;;;;;16.12;90.47;101566.84;7364216;19;20194;-66
2023/05/08 01:45:17;;;;;;;14.77;4.10;;;;;;;16.10;90.66;101566.22;7359866;19;20019;-65
2023/05/08 01:47:50;;;;;;;6.90;3.17;;;;;;;16.09;91.20;101562.72;7364966;19;20017;-64
2023/05/08 01:50:24;;;;;;;9.75;2.80;;;;;;;16.08;90.99;101570.84;7366495;19;20599;-64
2023/05/08 01:52:57;;;;;;;12.52;3.50;;;;;;;16.07;90.90;101566.53;7363015;19;20022;-64
2023/05/08 01:55:33;;;;;;;8.75;3.30;;;;;;;16.06;91.39;101567.53;7361880;19;20484;-64
2023/05/08 01:58:03;;;;;;;11.25;2.80;;;;;;;16.05;91.82;101571.22;7364260;19;20022;-64
2023/05/08 02:00:31;;;;;;;12.35;4.28;;;;;;;16.04;91.48;101573.03;7360080;19;20010;-65
2023/05/08 02:02:59;;;;;;;10.13;2.83;;;;;;;16.06;91.33;101572.84;7366258;19;20054;-64
2023/05/08 02:05:28;;;;;;;9.73;3.60;;;;;;;16.04;91.43;101570.38;7361461;19;20498;-65
2023/05/08 02:07:57;;;;;;;10.93;3.10;;;;;;;16.04;92.19;101573.03;7365463;19;20090;-65
2023/05/08 02:10:27;;;;;;;9.63;3.30;;;;;;;16.03;91.41;101579.34;7360128;19;20031;-67
2023/05/08 02:12:55;;;;;;;10.43;3.33;;;;;;;16.03;90.78;101579.34;7364347;19;20034;-64
2023/05/08 02:15:25;;;;;;;9.80;3.70;;;;;;;16.04;91.42;101580.16;7359604;19;20015;-63
2023/05/08 02:17:54;;;;;;;9.05;3.08;;;;;;;16.05;92.37;101581.81;7362646;19;20462;-65
2023/05/08 02:20:22;;;;;;;12.40;3.15;;;;;;;16.05;93.06;101574.66;7364147;19;20044;-65
2023/05/08 02:22:50;;;;;;;11.57;3.90;;;;;;;16.06;92.97;101591.44;7363394;19;20019;-65
2023/05/08 02:25:18;;;;;;;7.95;2.83;;;;;;;16.03;92.44;101578.50;7361212;19;20024;-64
2023/05/08 02:27:48;;;;;;;7.22;2.70;;;;;;;15.97;91.99;101581.81;7362917;19;20014;-65
2023/05/08 02:30:17;;;;;;;10.68;3.90;;;;;;;15.91;92.00;101583.31;7362963;19;20015;-65
2023/05/08 02:32:46;;;;;;;11.75;3.83;;;;;;;15.91;93.39;101574.53;7362128;19;20011;-63
2023/05/08 02:35:17;;;;;;;9.05;3.42;;;;;;;15.91;93.50;101575.38;7361195;19;20019;-65
2023/05/08 02:37:48;;;;;;;9.18;2.53;;;;;;;15.88;92.55;101574.88;7362025;19;20016;-63
2023/05/08 02:40:16;;;;;;;9.90;2.70;;;;;;;15.86;92.08;101576.88;7360400;19;20010;-65
2023/05/08 02:42:45;;;;;;;11.38;3.58;;;;;;;15.85;92.11;101569.94;7360586;19;20015;-65
2023/05/08 02:45:13;;;;;;;8.27;2.70;;;;;;;15.83;92.80;101572.75;7361677;19;20660;-66
2023/05/08 02:47:48;;;;;;;11.45;2.90;;;;;;;15.79;92.31;101569.59;7362110;19;20126;-66
2023/05/08 02:50:22;;;;;;;10.20;2.35;;;;;;;15.80;93.05;101562.44;7363086;19;20018;-65
2023/05/08 02:52:58;;;;;;;10.63;2.92;;;;;;;15.78;92.61;101564.44;7365715;19;20020;-64
2023/05/08 02:55:33;;;;;;;10.07;2.97;;;;;;;15.72;92.16;101565.13;7361131;19;20014;-66
2023/05/08 02:58:10;;;;;;;7.20;2.50;;;;;;;15.69;92.27;101562.81;7357896;19;20605;-64
2023/05/08 03:00:45;;;;;;;12.90;2.90;;;;;;;15.69;93.14;101561.00;7357156;19;20086;-67
2023/05/08 03:03:17;;;;;;;12.80;2.55;;;;;;;15.69;93.07;101560.16;7362444;19;21661;-64
2023/05/08 03:05:51;;;;;;;9.15;3.00;;;;;;;15.67;92.50;101567.44;7359892;19;20051;-64
2023/05/08 03:08:25;;;;;;;11.85;3.58;;;;;;;15.68;92.75;101558.50;7363082;19;20222;-64
2023/05/08 03:10:56;;;;;;;12.10;3.67;;;;;;;15.64;92.76;101557.19;7358795;19;20006;-65
2023/05/08 03:13:27;;;;;;;9.45;3.78;;;;;;;15.62;93.89;101562.66;7359611;19;20015;-64
2023/05/08 03:15:59;;;;;;;32.35;5.95;;;;;;;15.62;94.70;101561.81;7360609;19;20022;-68
2023/05/08 03:18:35;;;;;;;7.67;2.30;;;;;;;15.57;94.50;101562.31;7361377;19;20628;-64
2023/05/08 03:21:04;;;;;;;8.25;2.38;;;;;;;15.54;94.43;101556.53;7358628;19;20306;-64
2023/05/08 03:23:34;;;;;;;6.07;2.00;;;;;;;15.48;93.23;101552.69;7362221;19;20018;-64
2023/05/08 03:26:03;;;;;;;11.23;3.45;;;;;;;15.47;93.32;101552.84;7358935;19;20033;-64
2023/05/08 03:28:31;;;;;;;7.30;2.78;;;;;;;15.46;94.39;101552.00;7360679;19;21052;-64
2023/05/08 03:31:00;;;;;;;8.35;2.03;;;;;;;15.46;94.09;101556.47;7359613;19;20026;-64
2023/05/08 03:33:28;;;;;;;7.68;3.10;;;;;;;15.43;93.46;101555.00;7360426;19;20014;-64
2023/05/08 03:35:56;;;;;;;10.00;2.50;;;;;;;15.43;94.30;101555.00;7356775;19;20021;-64
2023/05/08 03:38:24;;;;;;;10.95;2.53;;;;;;;15.41;94.16;101555.16;7362267;19;20014;-64
2023/05/08 03:40:52;;;;;;;9.02;2.63;;;;;;;15.39;93.20;101551.84;7358751;19;20015;-64
2023/05/08 03:43:20;;;;;;;10.43;3.03;;;;;;;15.41;93.64;101551.69;7358356;19;20474;-64
2023/05/08 03:45:48;;;;;;;7.63;2.17;;;;;;;15.40;93.57;101553.50;7357004;19;20040;-63
2023/05/08 03:48:17;;;;;;;5.70;1.80;;;;;;;15.40;92.88;101556.16;7358336;19;20018;-64
2023/05/08 03:50:44;;;;;;;7.30;2.88;;;;;;;15.41;93.32;101547.22;7357235;19;20014;-64
2023/05/08 03:53:11;;;;;;;8.98;2.38;;;;;;;15.40;93.52;101547.38;7361809;19;20018;-64
2023/05/08 03:55:40;;;;;;;8.50;2.40;;;;;;;15.40;94.10;101552.66;7358487;19;20794;-65
2023/05/08 03:58:21;;;;;;;8.32;2.72;;;;;;;15.38;93.79;101542.25;7359909;19;20082;-64
2023/05/08 04:00:58;;;;;;;10.25;3.08;;;;;;;15.37;93.33;101542.41;7356018;19;20022;-64
2023/05/08 04:03:35;;;;;;;17.92;4.43;;;;;;;15.40;95.10;101544.72;7357057;19;20499;-64
2023/05/08 04:06:13;;;;;;;10.30;3.00;;;;;;;15.39;95.63;101548.34;7359856;19;20018;-65
2023/05/08 04:08:48;;;;;;;16.08;4.85;;;;;;;15.33;95.15;101541.91;7359611;19;20015;-63
2023/05/08 04:11:25;;;;;;;11.38;2.70;;;;;;;15.31;95.71;101538.59;7359810;19;20043;-65
2023/05/08 04:14:00;;;;;;;12.15;3.67;;;;;;;15.31;95.54;101540.41;7361274;19;20018;-64
2023/05/08 04:16:31;;;;;;;10.52;4.10;;;;;;;15.30;96.28;101534.28;7357818;19;20164;-66
2023/05/08 04:19:02;;;;;;;11.40;3.55;;;;;;;15.29;95.67;101540.56;7367022;19;20010;-64
2023/05/08 04:21:33;;;;;;;6.85;2.95;;;;;;;15.24;95.28;101532.28;7363242;19;20017;-64
2023/05/08 04:24:03;;;;;;;6.45;2.33;;;;;;;15.22;95.21;101534.28;7364750;19;20033;-65
2023/05/08 04:26:31;;;;;;;9.40;3.20;;;;;;;15.23;94.59;101541.25;7365992;19;20018;-65
2023/05/08 04:28:59;;;;;;;7.63;2.50;;;;;;;15.22;95.13;101530.81;7367101;19;20535;-65
2023/05/08 04:31:27;;;;;;;10.25;3.72;;;;;;;15.19;94.29;101541.72;7364173;19;20466;-64
2023/05/08 04:33:55;;;;;;;9.68;2.47;;;;;;;15.18;94.45;101538.28;7367996;19;20414;-64
2023/05/08 04:36:22;;;;;;;8.05;3.60;;;;;;;15.19;93.91;101536.41;7362933;19;20020;-64
2023/05/08 04:38:49;;;;;;;10.02;4.03;;;;;;;15.19;93.56;101537.25;7366092;19;20047;-64
2023/05/08 04:41:17;;;;;;;9.85;2.90;;;;;;;15.21;93.44;101534.44;7367217;19;21016;-63
2023/05/08 04:43:44;;;;;;;5.60;1.90;;;;;;;15.22;93.06;101539.59;7365472;19;20443;-65
2023/05/08 04:46:11;;;;;;;6.07;2.40;;;;;;;15.24;92.65;101534.94;7362854;19;20023;-64
2023/05/08 04:48:39;;;;;;;10.15;2.55;;;;;;;15.26;92.30;101538.25;7365351;19;20026;-64
2023/05/08 04:51:06;;;;;;;5.97;1.95;;;;;;;15.28;92.03;101532.81;7367648;19;20014;-64
2023/05/08 04:53:33;;;;;;;9.93;2.00;;;;;;;15.28;92.05;101530.16;7365089;19;20015;-65
2023/05/08 04:56:00;;;;;;;7.75;2.40;;;;;;;15.29;92.31;101531.78;7367008;19;20447;-64
2023/05/08 04:58:27;;;;;;;7.43;2.13;;;;;;;15.28;92.28;101528.31;7366926;19;20015;-65
2023/05/08 05:00:55;;;;;;;9.23;2.35;;;;;;;15.29;92.03;101526.47;7365306;19;20045;-65
2023/05/08 05:03:22;;;;;;;8.07;2.35;;;;;;;15.31;92.27;101527.16;7367427;19;20021;-65
2023/05/08 05:05:56;;;;;;;12.93;3.67;;;;;;;15.39;94.24;101529.78;7366465;19;20162;-65
2023/05/08 05:08:24;;;;;;;9.32;3.22;;;;;;;15.41;94.88;101531.28;7365311;19;20010;-64
2023/05/08 05:10:51;;;;;;;10.25;2.20;;;;;;;15.44;94.88;101535.41;7361795;19;20518;-64
2023/05/08 05:13:19;;;;;;;8.88;2.58;;;;;;;15.44;93.45;101535.41;7367798;19;20031;-64
2023/05/08 05:15:46;;;;;;;9.10;2.33;;;;;;;15.45;92.00;101542.38;7363329;19;20025;-64
2023/05/08 05:18:13;;;;;;;8.13;2.45;;;;;;;15.49;91.23;101540.25;7366616;19;20417;-65
2023/05/08 05:20:40;;;;;;;9.32;4.00;;;;;;;15.53;91.36;101550.38;7363070;19;20014;-65
2023/05/08 05:23:08;;;;;;;10.50;3.08;;;;;;;15.58;92.01;101549.88;7364025;19;20037;-65
2023/05/08 05:25:35;;;;;;;9.45;2.10;;;;;;;15.60;90.95;101545.22;7363210;19;20018;-65
2023/05/08 05:28:02;;;;;;;4.35;1.67;;;;;;;15.62;90.06;101551.19;7366112;19;20018;-65
2023/05/08 05:30:29;;;;;;;7.55;2.05;;;;;;;15.62;89.74;101553.84;7364162;19;21031;-65
2023/05/08 05:32:57;;;;;;;4.28;1.40;;;;;;;15.64;89.37;101567.78;7365434;19;20342;-65
2023/05/08 05:35:24;;;;;;;10.95;2.00;;;;;;;15.64;89.50;101558.00;7362879;19;20018;-65
2023/05/08 05:37:51;;;;;;;6.22;1.70;;;;;;;15.69;90.76;101557.50;7364455;19;20022;-64
2023/05/08 05:40:19;;;;;;;8.57;1.95;;;;;;;15.70;90.24;101561.78;7364081;19;20029;-64
2023/05/08 05:42:49;;;;;;;6.28;1.70;;;;;;;15.70;89.74;101567.94;7365321;19;20225;-64
2023/05/08 05:45:16;;;;;;;7.18;2.00;;;;;;;15.75;89.37;101564.78;7358876;19;20014;-65
2023/05/08 05:47:45;;;;;;;9.02;2.38;;;;;;;15.78;88.68;101577.72;7360020;19;20036;-65
2023/05/08 05:50:13;;;;;;;7.55;2.30;;;;;;;15.77;87.78;101570.75;7358752;19;20077;-64
2023/05/08 05:52:40;;;;;;;8.13;2.20;;;;;;;15.81;88.59;101569.41;7365927;19;20011;-66
2023/05/08 05:55:07;;;;;;;5.60;1.80;;;;;;;15.85;88.30;101567.28;7360830;19;20029;-64
2023/05/08 05:57:35;;;;;;;5.65;1.70;;;;;;;15.86;87.05;101564.44;7359377;19;20018;-66
2023/05/08 06:00:04;;;;;;;2.97;1.30;;;;;;;15.88;86.88;101570.41;7361751;19;20022;-65
2023/05/08 06:02:33;;;;;;;2.35;0.80;;;;;;;15.86;85.13;101575.03;7361335;19;21372;-65
2023/05/08 06:05:00;;;;;;;5.55;1.02;;;;;;;15.91;85.42;101583.31;7363054;19;20019;-65
2023/05/08 06:07:27;;;;;;;3.53;1.10;;;;;;;15.95;84.17;101578.53;7363339;19;20019;-64
2023/05/08 06:09:55;;;;;;;5.13;1.25;;;;;;;16.01;83.63;101576.00;7362976;19;20003;-65
2023/05/08 06:12:22;;;;;;;4.80;0.95;;;;;;;16.07;82.54;101574.50;7362333;19;20858;-65
2023/05/08 06:14:50;;;;;;;3.63;1.00;;;;;;;16.14;83.18;101581.63;7362099;19;20014;-65
2023/05/08 06:17:18;;;;;;;4.63;1.02;;;;;;;16.21;82.24;101579.94;7362766;19;20019;-63
2023/05/08 06:19:49;;;;;;;4.38;1.02;;;;;;;16.30;81.59;101586.06;7361413;19;20006;-64
2023/05/08 06:22:17;;;;;;;5.15;0.85;;;;;;;16.35;81.15;101583.72;7363081;19;20030;-65
2023/05/08 06:24:44;;;;;;;3.75;0.60;;;;;;;16.48;81.08;101591.13;7361123;19;20014;-64
2023/05/08 06:27:11;;;;;;;3.60;0.90;;;;;;;16.58;81.47;101592.63;7363635;19;20022;-64
2023/05/08 06:29:38;;;;;;;4.88;0.93;;;;;;;16.58;80.35;101592.63;7364151;19;20890;-64
2023/05/08 06:32:06;;;;;;;1.70;0.80;;;;;;;16.57;80.67;101593.56;7361858;19;20022;-64
2023/05/08 06:34:33;;;;;;;3.92;0.80;;;;;;;16.53;80.32;101594.09;7363765;19;20026;-64
2023/05/08 06:37:00;;;;;;;3.88;0.88;;;;;;;16.49;79.47;101600.75;7363898;19;20090;-65
2023/05/08 06:39:27;;;;;;;4.03;0.85;;;;;;;16.41;79.75;101598.94;7360165;19;20063;-64
2023/05/08 06:41:55;;;;;;;5.25;1.02;;;;;;;16.34;79.65;101598.00;7361866;19;20026;-64
2023/05/08 06:44:22;;;;;;;4.22;1.00;;;;;;;16.30;80.23;101598.50;7360620;19;20041;-64
2023/05/08 06:46:49;;;;;;;6.05;1.63;;;;;;;16.26;81.51;101603.31;7363778;19;20175;-64
2023/05/08 06:49:16;;;;;;;4.50;0.80;;;;;;;16.32;82.76;101609.78;7363434;19;20086;-65
2023/05/08 06:51:44;;;;;;;3.53;1.08;;;;;;;16.31;82.07;101611.59;7361689;19;20024;-64
2023/05/08 06:54:11;;;;;;;4.25;0.90;;;;;;;16.26;81.72;101606.81;7358740;19;20033;-66
2023/05/08 06:56:38;;;;;;;5.45;1.10;;;;;;;16.22;81.71;101604.66;7363051;19;20474;-65
2023/05/08 06:59:05;;;;;;;3.63;1.05;;;;;;;16.18;82.39;101604.19;7361978;19;20442;-65
2023/05/08 07:01:36;;;;;;;3.97;0.75;;;;;;;16.19;82.43;101605.03;7361824;19;20011;-65
2023/05/08 07:04:04;;;;;;;3.92;1.38;;;;;;;16.16;82.72;101611.47;7361554;19;20552;-65
2023/05/08 07:06:31;;;;;;;3.60;1.13;;;;;;;16.20;82.91;101610.13;7360491;19;20015;-65
2023/05/08 07:08:58;;;;;;;5.10;1.13;;;;;;;16.22;83.15;101620.59;7362025;19;20006;-66
2023/05/08 07:11:25;;;;;;;4.93;1.30;;;;;;;16.23;83.11;101619.59;7361705;19;20018;-65
2023/05/08 07:13:53;;;;;;;5.85;1.63;;;;;;;16.25;82.53;101621.09;7359963;19;20035;-64
2023/05/08 07:16:20;;;;;;;7.97;2.42;;;;;;;16.22;82.02;101626.75;7359405;19;20021;-65
2023/05/08 07:18:47;;;;;;;5.88;2.40;;;;;;;16.17;82.13;101622.94;7362881;19;20018;-65
2023/05/08 07:21:16;;;;;;;7.10;2.97;;;;;;;16.08;81.43;101618.66;7360749;19;20045;-65
2023/05/08 07:23:44;;;;;;;9.93;3.45;;;;;;;16.13;83.98;101621.63;7362822;19;21222;-64
2023/05/08 07:26:11;;;;;;;8.38;3.80;;;;;;;16.25;83.80;101621.09;7359385;19;20034;-66
2023/05/08 07:28:38;;;;;;;9.77;3.47;;;;;;;16.31;82.11;101616.09;7361487;19;20014;-66
2023/05/08 07:31:06;;;;;;;9.18;3.80;;;;;;;16.36;82.57;101622.53;7357395;19;20044;-66
2023/05/08 07:33:33;;;;;;;10.52;4.53;;;;;;;16.36;80.76;101616.41;7362631;19;20445;-64
2023/05/08 07:36:01;;;;;;;8.88;4.35;;;;;;;16.42;81.45;101619.22;7358939;19;20990;-65
2023/05/08 07:38:28;;;;;;;9.82;4.65;;;;;;;16.47;80.96;101616.03;7361601;19;20033;-63
2023/05/08 07:40:56;;;;;;;9.23;4.18;;;;;;;16.49;80.60;101608.72;7360337;19;20014;-65
2023/05/08 07:43:24;;;;;;;8.38;3.47;;;;;;;16.51;80.51;101612.03;7363116;19;20045;-65
2023/05/08 07:45:51;;;;;;;8.88;3.42;;;;;;;16.52;80.42;101611.03;7357012;19;20017;-64
2023/05/08 07:48:19;;;;;;;7.35;3.33;;;;;;;16.53;80.69;101604.72;7360590;19;20142;-65
2023/05/08 07:50:49;;;;;;;9.23;4.05;;;;;;;16.54;80.58;101609.88;7357944;19;20018;-64
2023/05/08 07:53:17;;;;;;;10.18;4.82;;;;;;;16.55;80.68;101616.03;7361652;19;20038;-65
2023/05/08 07:55:44;;;;;;;9.95;4.72;;;;;;;16.55;81.35;101608.88;7358342;19;20158;-65
2023/05/08 07:58:11;;;;;;;11.10;4.35;;;;;;;16.57;80.88;101604.22;7361227;19;20860;-65
2023/05/08 08:00:39;;;;;;;11.95;4.72;;;;;;;16.61;80.83;101612.69;7357137;19;20011;-64
2023/05/08 08:03:06;;;;;;;7.78;4.00;;;;;;;16.58;80.41;101603.25;7359689;19;21718;-65
2023/05/08 08:05:34;;;;;;;9.82;4.03;;;;;;;16.60;81.10;101601.25;7360611;19;20041;-65
2023/05/08 08:08:01;;;;;;;9.98;4.05;;;;;;;16.65;82.32;101595.41;7362679;19;20017;-63
2023/05/08 08:10:30;;;;;;;9.13;4.13;;;;;;;16.71;80.67;101604.53;7361634;19;20019;-65
2023/05/08 08:12:57;;;;;;;8.02;3.15;;;;;;;16.70;79.98;101603.69;7362503;19;20014;-64
2023/05/08 08:15:24;;;;;;;7.45;2.60;;;;;;;16.75;81.39;101595.19;7355848;19;20019;-64
2023/05/08 08:17:51;;;;;;;8.85;2.95;;;;;;;16.76;80.26;101599.53;7362477;19;20014;-64
2023/05/08 08:20:19;;;;;;;6.45;2.40;;;;;;;16.77;79.90;101601.16;7360728;19;20040;-66
2023/05/08 08:22:46;;;;;;;5.80;2.38;;;;;;;16.79;80.84;101601.81;7358560;19;20023;-64
2023/05/08 08:25:14;;;;;;;7.20;2.03;;;;;;;16.77;79.41;101601.16;7359324;19;20044;-66
2023/05/08 08:27:41;;;;;;;4.50;2.42;;;;;;;16.74;79.13;101602.34;7358608;19;20130;-66
2023/05/08 08:30:09;;;;;;;5.18;2.08;;;;;;;16.73;79.66;101599.84;7361880;19;20014;-65
2023/05/08 08:32:44;;;;;;;5.80;1.85;;;;;;;16.70;78.88;101602.88;7362284;19;20018;-65
2023/05/08 08:35:12;;;;;;;4.50;1.77;;;;;;;16.71;79.05;101593.91;7358143;19;20016;-65
2023/05/08 08:37:41;;;;;;;4.40;1.73;;;;;;;16.70;79.08;101594.91;7357752;19;20026;-65
2023/05/08 08:40:08;;;;;;;6.88;1.75;;;;;;;16.70;80.08;101592.22;7361850;19;20378;-66
2023/05/08 08:42:36;;;;;;;6.10;1.42;;;;;;;16.72;79.51;101593.69;7359157;19;20018;-66
2023/05/08 08:45:04;;;;;;;5.45;1.27;;;;;;;16.77;79.54;101588.69;7355840;19;20307;-65
2023/05/08 08:47:36;;;;;;;4.40;1.73;;;;;;;16.82;79.01;101590.81;7358021;19;20030;-66
2023/05/08 08:50:07;;;;;;;4.65;1.25;;;;;;;16.90;79.43;101582.81;7357452;19;20122;-65
2023/05/08 08:52:37;;;;;;;5.25;1.85;;;;;;;16.91;78.73;101580.00;7357025;19;20097;-65
2023/05/08 08:55:08;;;;;;;3.90;1.30;;;;;;;16.97;78.98;101587.25;7355920;19;20022;-64
2023/05/08 08:57:44;;;;;;;4.35;1.20;;;;;;;17.06;78.98;101582.72;7355417;19;20043;-66
2023/05/08 09:00:12;;;;;;;4.20;1.02;;;;;;;17.15;78.08;101579.00;7355794;19;20014;-65
2023/05/08 09:02:40;;;;;;;3.20;1.20;;;;;;;17.19;76.70;101571.47;7357783;19;20037;-65
2023/05/08 09:05:08;;;;;;;3.97;1.42;;;;;;;17.21;76.83;101570.31;7365191;19;20014;-66
2023/05/08 09:07:37;;;;;;;6.25;1.38;;;;;;;17.24;76.84;101569.94;7366061;19;20082;-65
2023/05/08 09:10:06;;;;;;;4.35;1.20;;;;;;;17.26;76.83;101569.78;7364339;19;20014;-65
2023/05/08 09:12:33;;;;;;;4.45;1.67;;;;;;;17.28;76.69;101573.91;7366668;19;20031;-65
2023/05/08 09:15:01;;;;;;;5.93;1.52;;;;;;;17.30;76.93;101568.41;7364762;19;20093;-65
2023/05/08 09:17:28;;;;;;;4.82;1.65;;;;;;;17.34;77.23;101572.38;7362852;19;20482;-65
2023/05/08 09:19:55;;;;;;;6.97;1.48;;;;;;;17.37;76.39;101572.81;7360391;19;20163;-67
2023/05/08 09:22:25;;;;;;;4.55;1.33;;;;;;;17.38;75.61;101569.16;7362953;19;20086;-65
2023/05/08 09:24:57;;;;;;;6.00;1.48;;;;;;;17.35;74.55;101576.69;7363013;19;20010;-65
2023/05/08 09:27:27;;;;;;;3.83;1.40;;;;;;;17.29;75.12;101572.06;7367728;19;20422;-65
2023/05/08 09:30:01;;;;;;;3.92;0.98;;;;;;;17.21;75.00;101583.63;7362605;19;20017;-64
2023/05/08 09:32:29;;;;;;;3.47;0.90;;;;;;;17.21;75.84;101574.81;7365230;19;20415;-65
2023/05/08 09:34:57;;;;;;;2.80;1.17;;;;;;;17.18;75.61;101573.31;7363123;19;20015;-66
2023/05/08 09:37:25;;;;;;;5.13;1.10;;;;;;;17.24;76.26;101577.09;7363887;19;20026;-65
2023/05/08 09:39:53;;;;;;;4.22;1.20;;;;;;;17.31;76.01;101575.41;7363983;19;20015;-63
2023/05/08 09:42:22;;;;;;;5.30;1.58;;;;;;;17.31;75.61;101576.22;7362627;19;20102;-65
2023/05/08 09:44:52;;;;;;;4.13;0.90;;;;;;;17.29;74.23;101569.41;7360243;19;20018;-64
2023/05/08 09:47:21;;;;;;;2.92;0.60;;;;;;;17.24;74.69;101567.28;7361339;19;20014;-65
2023/05/08 09:49:55;;;;;;;2.05;0.80;;;;;;;17.22;75.39;101566.63;7360419;19;20439;-65
2023/05/08 09:52:23;;;;;;;2.03;0.70;;;;;;;17.22;76.02;101565.81;7361763;19;20017;-64
2023/05/08 09:54:57;;;;;;;4.72;0.85;;;;;;;17.16;75.58;101570.03;7364327;19;20017;-65
2023/05/08 09:57:26;;;;;;;5.80;0.70;;;;;;;17.17;76.82;101566.34;7365310;19;20048;-66
2023/05/08 10:00:03;;;;;;;4.32;0.70;;;;;;;17.18;76.34;101567.16;7358415;19;20018;-67
2023/05/08 10:02:31;;;;;;;3.58;1.00;;;;;;;17.22;77.15;101571.16;7358274;19;20010;-65
2023/05/08 10:04:59;;;;;;;4.03;0.70;;;;;;;17.29;77.19;101564.09;7360033;19;20023;-65
2023/05/08 10:07:29;;;;;;;5.00;0.63;;;;;;;17.32;76.92;101563.75;7364035;19;20018;-65
2023/05/08 10:09:59;;;;;;;5.97;0.80;;;;;;;17.32;77.17;101561.88;7359722;19;20135;-65
2023/05/08 10:12:27;;;;;;;5.05;0.80;;;;;;;17.27;75.95;101558.13;7360297;19;20015;-67
2023/05/08 10:14:55;;;;;;;5.05;0.63;;;;;;;17.18;75.97;101553.88;7359261;19;20024;-65
2023/05/08 10:17:26;;;;;;;2.83;0.85;;;;;;;17.16;76.79;101551.41;7360969;19;20040;-65
2023/05/08 10:19:59;;;;;;;3.60;0.70;;;;;;;17.15;76.65;101547.09;7361650;19;20640;-65
2023/05/08 10:22:28;;;;;;;4.75;0.93;;;;;;;17.19;77.06;101539.56;7364750;19;20014;-66
2023/05/08 10:24:57;;;;;;;4.43;0.80;;;;;;;17.27;77.14;101536.84;7357635;19;20131;-67
2023/05/08 10:27:33;;;;;;;5.65;0.65;;;;;;;17.27;76.18;101535.00;7361408;19;20010;-65
2023/05/08 10:30:03;;;;;;;5.03;0.55;;;;;;;17.27;75.87;101524.34;7359968;19;20014;-65
2023/05/08 10:32:39;;;;;;;5.35;0.77;;;;;;;17.30;76.33;101523.19;7359711;19;20082;-66
2023/05/08 10:35:09;;;;;;;2.78;0.80;;;;;;;17.35;77.01;101518.97;7362377;19;20036;-64
2023/05/08 10:37:38;;;;;;;5.93;0.60;;;;;;;17.41;77.21;101523.59;7359009;19;20037;-65
2023/05/08 10:40:07;;;;;;;2.05;0.70;;;;;;;17.43;77.63;101515.41;7361916;19;20018;-64
2023/05/08 10:42:35;;;;;;;5.65;0.80;;;;;;;17.48;78.93;101524.50;7358197;19;20018;-65
2023/05/08 10:45:05;;;;;;;4.15;0.70;;;;;;;17.55;80.13;101508.66;7357227;19;20022;-65
2023/05/08 10:47:38;;;;;;;3.85;0.70;;;;;;;17.56;78.69;101517.47;7361565;19;20022;-65
2023/05/08 10:50:12;;;;;;;5.22;0.60;;;;;;;17.57;78.06;101509.31;7361420;19;20487;-65
2023/05/08 10:52:49;;;;;;;4.85;0.60;;;;;;;17.64;78.31;101512.91;7364148;19;20015;-65
2023/05/08 10:55:23;;;;;;;4.43;0.60;;;;;;;17.77;78.40;101517.63;7362246;19;20370;-66
2023/05/08 10:57:56;;;;;;;3.40;0.60;;;;;;;17.81;76.33;101510.91;7363486;19;20850;-65
2023/05/08 11:00:23;;;;;;;1.95;0.40;;;;;;;17.85;76.08;101506.88;7359994;19;20976;-64
2023/05/08 11:02:50;;;;;;;1.85;0.50;;;;;;;17.87;75.59;101513.69;7364295;19;20022;-64
2023/05/08 11:05:19;;;;;;;5.60;0.45;;;;;;;17.93;76.72;101515.59;7362177;19;20037;-65
2023/05/08 11:07:55;;;;;;;2.38;0.40;;;;;;;17.95;78.03;101518.91;7362633;19;20446;-64
2023/05/08 11:10:30;;;;;;;5.22;0.50;;;;;;;17.91;76.74;101514.97;7360200;19;20006;-66
2023/05/08 11:12:59;;;;;;;1.63;0.40;;;;;;;17.90;77.63;101520.47;7358842;19;20017;-64
2023/05/08 11:15:33;;;;;;;2.83;0.90;;;;;;;17.93;77.85;101514.75;7357273;19;20010;-65
2023/05/08 11:18:04;;;;;;;2.80;0.40;;;;;;;17.93;77.21;101512.91;7362041;19;20010;-65
2023/05/08 11:20:38;;;;;;;3.95;0.60;;;;;;;17.88;76.60;101499.31;7358908;19;20036;-64
2023/05/08 11:23:11;;;;;;;6.88;0.57;;;;;;;17.89;77.07;101505.47;7358211;19;20018;-64
2023/05/08 11:25:42;;;;;;;2.80;0.52;;;;;;;17.90;76.44;101505.31;7362098;19;20145;-65
2023/05/08 11:28:10;;;;;;;2.83;0.50;;;;;;;17.87;75.86;101494.22;7360999;19;20025;-65
2023/05/08 11:30:38;;;;;;;3.55;0.43;;;;;;;17.80;76.55;101503.94;7357467;19;20077;-65
2023/05/08 11:33:07;;;;;;;5.15;0.70;;;;;;;17.76;76.67;101505.31;7362701;19;20018;-65